tititudorancea.com
Station Historical Data
Daily Summary for January 20, 2018 Units:  Metric    English   Both
« Previous Day
Next Day »
Daily Weekly Monthly Yearly Custom
  High: Low: Average:
Temperature: -17.8 °C 16.4 °C 22.9 °C
Dew Point: -17.8 °C 10.6 °C 14.2 °C
Humidity: Humidity % 26 % 63 %
Wind Speed: 0 km/h 2.1 km/h 11.3 km/h
Wind Gust: 0 km/h - -
Wind:- - SSW
Pressure: 0 hPa 1008 hPa -
Precipitation: 0 mm    
Historical Graphs
 
 
Ararat weather Find more about Weather in Ararat, AU


 



 


Tabular Data for January 20, 2018
Time Temperature Dew Point Pressure Wind Wind Speed Wind Gust Humidity Rainfall Rate (Hourly)
-17.8 °C -17.8 °C 0 hPa Calm     Humidity % 0 mm
00:00 20.2 °C 15.2 °C 1009.7 hPa SSW 13 km/h 20.4 km/h 73 % 0 mm
00:05 19.7 °C 15.4 °C 1009.7 hPa SSW 14.2 km/h 24.1 km/h 76 % 0 mm
00:10 19.4 °C 15.4 °C 1009.7 hPa South 12.1 km/h 16.7 km/h 78 % 0 mm
00:15 19.2 °C 15.4 °C 1009.7 hPa SSW 12.1 km/h 18.5 km/h 79 % 0 mm
00:20 18.9 °C 15.6 °C 1010 hPa South 12.7 km/h 20.4 km/h 81 % 0 mm
00:25 18.6 °C 15.5 °C 1010 hPa South 9.5 km/h 22.2 km/h 82 % 0 mm
00:30 18.3 °C 15.4 °C 1009.7 hPa South 14.2 km/h 14.8 km/h 83 % 0 mm
00:35 18.1 °C 15.4 °C 1009.7 hPa SSE 16.4 km/h 20.4 km/h 84 % 0 mm
00:40 17.9 °C 15.3 °C 1009.7 hPa SSW 10.1 km/h 18.5 km/h 85 % 0 mm
00:45 17.6 °C 15.2 °C 1009.7 hPa SSW 14.3 km/h 19.3 km/h 86 % 0 mm
00:50 17.4 °C 15.2 °C 1009.7 hPa SSW 12.9 km/h 18.5 km/h 87 % 0 mm
00:56 17.2 °C 15.2 °C 1009.7 hPa North 7.1 km/h 14.5 km/h 88 % 0 mm
01:01 17.2 °C 15.3 °C 1009.7 hPa North 7.7 km/h 14.5 km/h 89 % 0 mm
01:06 17.1 °C 15.3 °C 1009.7 hPa South 13.7 km/h 20.4 km/h 89 % 0 mm
01:11 17.1 °C 15.4 °C 1009.7 hPa South 17.4 km/h 24.1 km/h 90 % 0 mm
01:16 17 °C 15.3 °C 1009.4 hPa South 9.8 km/h 22.2 km/h 90 % 0 mm
01:21 17 °C 15.3 °C 1009.7 hPa North 9.8 km/h 13 km/h 90 % 0 mm
01:26 16.9 °C 15.3 °C 1009.4 hPa North 10.3 km/h 16.7 km/h 90 % 0 mm
01:31 16.9 °C 15.3 °C 1009.4 hPa North 10.3 km/h 16.7 km/h 90 % 0 mm
01:36 16.9 °C 15.4 °C 1009.7 hPa North 9.7 km/h 18.5 km/h 91 % 0 mm
01:41 16.9 °C 15.4 °C 1009.4 hPa South 4.7 km/h 11.1 km/h 91 % 0 mm
01:46 16.9 °C 15.4 °C 1009.7 hPa North 9.2 km/h 14.8 km/h 91 % 0 mm
01:51 16.9 °C 15.4 °C 1009.7 hPa North 6.4 km/h 14.8 km/h 91 % 0 mm
01:56 16.9 °C 15.4 °C 1009.7 hPa South 11.3 km/h 18.5 km/h 91 % 0 mm
02:01 16.9 °C 15.4 °C 1009.7 hPa South 8.5 km/h 14.8 km/h 91 % 0 mm
02:06 16.8 °C 15.3 °C 1009.7 hPa North 10.6 km/h 33.3 km/h 91 % 0 mm
02:11 16.8 °C 15.3 °C 1009.4 hPa North 12.1 km/h 16.7 km/h 91 % 0 mm
02:16 16.7 °C 15.3 °C 1009.4 hPa North 6 km/h 9.7 km/h 92 % 0 mm
02:21 16.6 °C 15.1 °C 1009.4 hPa North 4.7 km/h 7.4 km/h 91 % 0 mm
02:26 16.6 °C 15.3 °C 1009.4 hPa North 4 km/h 8 km/h 92 % 0 mm
02:31 16.5 °C 15.2 °C 1009.4 hPa South 5.8 km/h 7.4 km/h 92 % 0 mm
02:36 16.4 °C 15.2 °C 1009.4 hPa North 11.1 km/h 16.7 km/h 92 % 0 mm
02:41 16.4 °C 15.2 °C 1009.4 hPa SSW 12.1 km/h 16.7 km/h 92 % 0 mm
02:46 16.4 °C 15.2 °C 1009 hPa SSW 11.6 km/h 16.7 km/h 92 % 0 mm
02:51 16.6 °C 15.3 °C 1009 hPa SSW 14.3 km/h 22.2 km/h 92 % 0 mm
02:56 16.6 °C 15.3 °C 1009 hPa SSW 8.4 km/h 14.8 km/h 92 % 0 mm
03:01 16.7 °C 15.3 °C 1008.7 hPa SSW 10.1 km/h 16.7 km/h 92 % 0 mm
03:06 16.7 °C 15.3 °C 1008.7 hPa SSW 5.3 km/h 6.4 km/h 92 % 0 mm
03:11 16.7 °C 15.2 °C 1008.7 hPa North 7.6 km/h 12.9 km/h 91 % 0 mm
03:16 16.8 °C 15.3 °C 1008.7 hPa SSW 10.1 km/h 16.7 km/h 91 % 0 mm
03:21 16.8 °C 15.3 °C 1008.7 hPa SSW 8.4 km/h 16.7 km/h 91 % 0 mm
03:26 16.9 °C 15.2 °C 1008.7 hPa SSW 9.8 km/h 18.5 km/h 90 % 0 mm
03:31 16.9 °C 15.3 °C 1008.7 hPa SSW 8.2 km/h 11.1 km/h 90 % 0 mm
03:36 17 °C 15.3 °C 1008.7 hPa SSW 14 km/h 20.4 km/h 90 % 0 mm
03:41 17.1 °C 15.2 °C 1008.7 hPa SSW 8.9 km/h 16.7 km/h 89 % 0 mm
03:46 17.1 °C 15.2 °C 1008.7 hPa South 10.5 km/h 18.5 km/h 89 % 0 mm
03:51 17.1 °C 15.2 °C 1008.7 hPa South 10 km/h 19.3 km/h 89 % 0 mm
03:56 17.1 °C 15.1 °C 1008.7 hPa North 12.2 km/h 18.5 km/h 88 % 0 mm
04:01 17.1 °C 15.1 °C 1008.4 hPa North 15.6 km/h 18.5 km/h 88 % 0 mm
04:06 17.1 °C 15.1 °C 1008.4 hPa SSW 13.5 km/h 18.5 km/h 88 % 0 mm
04:11 17 °C 15 °C 1008.4 hPa North 13.5 km/h 22.2 km/h 88 % 0 mm
04:16 16.9 °C 15.1 °C 1008.4 hPa SSW 9 km/h 11.1 km/h 89 % 0 mm
04:21 16.8 °C 15 °C 1008.4 hPa SSW 9.3 km/h 14.8 km/h 89 % 0 mm
04:26 16.8 °C 15 °C 1008.4 hPa SSW 9.8 km/h 14.8 km/h 89 % 0 mm
04:31 16.9 °C 15.1 °C 1008.4 hPa SSW 6.6 km/h 13 km/h 89 % 0 mm
04:36 16.9 °C 15.1 °C 1008.4 hPa SSW 5.5 km/h 11.1 km/h 89 % 0 mm
04:41 17.1 °C 15.1 °C 1008.4 hPa SSW 8.5 km/h 13 km/h 88 % 0 mm
04:46 17.2 °C 15.1 °C 1008.4 hPa SSW 3.7 km/h 5.6 km/h 87 % 0 mm
04:51 17.2 °C 14.8 °C 1008 hPa SSW 6.6 km/h 13 km/h 86 % 0 mm
04:56 17.2 °C 14.8 °C 1008 hPa North 5.1 km/h 8 km/h 86 % 0 mm
05:01 17.4 °C 14.8 °C 1008 hPa SSW 5.8 km/h 6.4 km/h 85 % 0 mm
05:06 17.5 °C 14.8 °C 1008.4 hPa North 8.4 km/h 13 km/h 84 % 0 mm
05:11 17.6 °C 14.7 °C 1008.7 hPa North 8.4 km/h 14.8 km/h 83 % 0 mm
05:16 17.7 °C 14.8 °C 1008.4 hPa SSW 11.7 km/h 16.7 km/h 83 % 0 mm
05:21 17.6 °C 14.8 °C 1008.7 hPa SSW 9.7 km/h 18.5 km/h 84 % 0 mm
05:26 17.4 °C 14.8 °C 1008.7 hPa SSW 6.3 km/h 13 km/h 85 % 0 mm
05:31 17.2 °C 14.6 °C 1008.7 hPa North 12.2 km/h 18.5 km/h 85 % 0 mm
05:36 17.1 °C 14.7 °C 1008.7 hPa SSW 8.7 km/h 14.5 km/h 86 % 0 mm
05:41 16.9 °C 14.8 °C 1009 hPa North 13.8 km/h 18.5 km/h 87 % 0 mm
05:46 16.8 °C 14.8 °C 1009 hPa SSW 14 km/h 20.4 km/h 88 % 0 mm
05:51 16.8 °C 14.8 °C 1009.4 hPa SSW 12.9 km/h 18.5 km/h 88 % 0 mm
05:56 16.8 °C 14.8 °C 1009.4 hPa SSW 6.4 km/h 14.8 km/h 88 % 0 mm
06:01 16.8 °C 15 °C 1009.4 hPa North 13 km/h 18.5 km/h 89 % 0 mm
06:06 16.7 °C 14.9 °C 1009.4 hPa SSW 13.4 km/h 22.2 km/h 89 % 0 mm
06:11 16.7 °C 15 °C 1009.4 hPa North 12.1 km/h 18.5 km/h 90 % 0 mm
06:16 16.6 °C 14.9 °C 1009.4 hPa SSW 9.7 km/h 18.5 km/h 90 % 0 mm
06:21 16.5 °C 15 °C 1009.4 hPa North 7.7 km/h 13 km/h 91 % 0 mm
06:26 16.4 °C 15.2 °C 1009.4 hPa North 3.7 km/h 8 km/h 92 % 0 mm
06:31 16.4 °C 15.2 °C 1009.7 hPa North 7.7 km/h 14.8 km/h 92 % 0 mm
06:36 16.4 °C 15.2 °C 1009.7 hPa South 8.7 km/h 13 km/h 92 % 0 mm
06:41 16.5 °C 15.4 °C 1009.4 hPa North 13.4 km/h 18.5 km/h 93 % 0 mm
06:46 16.6 °C 15.4 °C 1009.7 hPa SSW 13.2 km/h 18.5 km/h 93 % 0 mm
06:51 16.6 °C 15.5 °C 1009.7 hPa South 11.4 km/h 18.5 km/h 93 % 0 mm
06:56 16.7 °C 15.6 °C 1009.7 hPa South 6.3 km/h 13 km/h 93 % 0 mm
07:01 16.7 °C 15.6 °C 1010 hPa SSW 14.5 km/h 18.5 km/h 93 % 0 mm
07:06 16.8 °C 15.7 °C 1010 hPa North 16.4 km/h 25.9 km/h 93 % 0 mm
07:11 16.8 °C 15.7 °C 1010.4 hPa North 11.4 km/h 20.4 km/h 93 % 0 mm
07:16 16.9 °C 15.7 °C 1010.7 hPa North 14 km/h 18.5 km/h 93 % 0 mm
07:21 16.9 °C 15.8 °C 1010.7 hPa SSW 13.7 km/h 20.4 km/h 93 % 0 mm
07:26 17 °C 15.8 °C 1010.7 hPa North 10.3 km/h 20.4 km/h 93 % 0 mm
07:31 17.1 °C 15.9 °C 1010.7 hPa SSW 18 km/h 25.9 km/h 93 % 0 mm
07:36 17.1 °C 15.9 °C 1010.7 hPa North 13 km/h 18.5 km/h 93 % 0 mm
07:41 17.2 °C 16 °C 1011.1 hPa SSW 20.8 km/h 24.1 km/h 93 % 0 mm
07:46 17.2 °C 16.1 °C 1011.1 hPa SSW 17.5 km/h 25.9 km/h 93 % 0 mm
07:51 17.3 °C 16.1 °C 1011.1 hPa South 12.4 km/h 18.5 km/h 93 % 0 mm
07:56 17.3 °C 16.1 °C 1011.4 hPa North 8.9 km/h 14.8 km/h 93 % 0 mm
08:01 17.4 °C 16.2 °C 1011.4 hPa North 15.3 km/h 16.7 km/h 93 % 0 mm
08:06 17.4 °C 16.3 °C 1011.4 hPa South 16.4 km/h 18.5 km/h 93 % 0 mm
08:11 17.5 °C 16.2 °C 1011.4 hPa South 13.5 km/h 22.2 km/h 92 % 0 mm
08:16 17.6 °C 16.3 °C 1011.4 hPa North 15.9 km/h 24.1 km/h 92 % 0 mm
08:21 17.7 °C 16.3 °C 1011.7 hPa South 12.9 km/h 18.5 km/h 92 % 0 mm
08:26 17.7 °C 16.4 °C 1011.4 hPa North 11.6 km/h 20.4 km/h 92 % 0 mm
08:31 17.8 °C 16.3 °C 1011.4 hPa North 5.8 km/h 18.5 km/h 91 % 0 mm
08:36 17.9 °C 16.4 °C 1011.4 hPa South 18.5 km/h 22.5 km/h 91 % 0 mm
08:41 17.9 °C 16.4 °C 1011.7 hPa North 12.1 km/h 18.5 km/h 91 % 0 mm
08:46 17.9 °C 16.3 °C 1011.4 hPa South 13 km/h 20.4 km/h 90 % 0 mm
08:51 18.1 °C 16.4 °C 1011.7 hPa SSE 12.2 km/h 22.2 km/h 90 % 0 mm
08:56 18.3 °C 16.6 °C 1011.4 hPa South 11.4 km/h 14.8 km/h 90 % 0 mm
09:01 18.4 °C 16.6 °C 1011.4 hPa South 10 km/h 19.3 km/h 89 % 0 mm
09:06 18.5 °C 16.5 °C 1011.4 hPa SE 11.3 km/h 22.2 km/h 88 % 0 mm
09:11 18.9 °C 16.7 °C 1011.4 hPa SE 12.2 km/h 18.5 km/h 87 % 0 mm
09:16 19.2 °C 16.6 °C 1011.4 hPa SSE 14.2 km/h 16.7 km/h 85 % 0 mm
09:21 19.2 °C 16.6 °C 1011.7 hPa SE 14.5 km/h 22.2 km/h 85 % 0 mm
09:26 19.4 °C 16.6 °C 1011.7 hPa North 11.6 km/h 14.8 km/h 84 % 0 mm
09:31 19.8 °C 16.8 °C 1011.7 hPa South 13.5 km/h 20.4 km/h 83 % 0 mm
09:36 19.9 °C 16.8 °C 1011.4 hPa SSE 16.4 km/h 19.3 km/h 82 % 0 mm
09:41 20.1 °C 16.7 °C 1011.4 hPa North 14.5 km/h 20.9 km/h 81 % 0 mm
09:46 20 °C 16.6 °C 1011.4 hPa SSE 12.2 km/h 18.5 km/h 81 % 0 mm
09:51 20.2 °C 16.7 °C 1011.1 hPa SSE 12.4 km/h 18.5 km/h 80 % 0 mm
09:56 20.4 °C 16.7 °C 1011.4 hPa North 13.5 km/h 25.9 km/h 79 % 0 mm
10:01 20.7 °C 16.7 °C 1011.1 hPa South 9.7 km/h 25.7 km/h 78 % 0 mm
10:06 20.8 °C 16.8 °C 1011.4 hPa South 12.2 km/h 27.4 km/h 78 % 0 mm
10:11 20.9 °C 16.5 °C 1011.4 hPa South 15.4 km/h 20.9 km/h 76 % 0 mm
10:16 20.8 °C 16.4 °C 1011.1 hPa South 8.7 km/h 20.4 km/h 76 % 0 mm
10:21 21.1 °C 16.7 °C 1011.1 hPa SSE 15.4 km/h 20.4 km/h 76 % 0 mm
10:26 21.4 °C 16.8 °C 1011.1 hPa SSE 9.7 km/h 14.8 km/h 75 % 0 mm
10:31 21.6 °C 16.8 °C 1011.1 hPa South 14.6 km/h 22.2 km/h 74 % 0 mm
10:36 21.6 °C 16.8 °C 1011.1 hPa North 11.4 km/h 16.7 km/h 74 % 0 mm
10:41 21.9 °C 16.6 °C 1011.1 hPa South 10.6 km/h 20.4 km/h 72 % 0 mm
10:46 22.3 °C 16.6 °C 1011.4 hPa SSE 11.4 km/h 20.4 km/h 70 % 0 mm
10:51 22.5 °C 16.5 °C 1011.1 hPa South 11.7 km/h 14.8 km/h 69 % 0 mm
10:56 22.6 °C 16.6 °C 1011.4 hPa SE 12.9 km/h 18.5 km/h 69 % 0 mm
11:01 22.8 °C 16.6 °C 1011.1 hPa SSE 18.7 km/h 24.1 km/h 68 % 0 mm
11:06 22.9 °C 16.7 °C 1011.1 hPa South 9.2 km/h 9.7 km/h 68 % 0 mm
11:11 23.4 °C 16.7 °C 1011.1 hPa SSE 6.8 km/h 9.3 km/h 66 % 0 mm
11:16 23.5 °C 16.3 °C 1011.1 hPa SSE 10.3 km/h 18.5 km/h 64 % 0 mm
11:21 23.3 °C 16.1 °C 1011.1 hPa North 12.7 km/h 20.4 km/h 64 % 0 mm
11:26 23.2 °C 16.3 °C 1011.1 hPa South 11.1 km/h 18.5 km/h 65 % 0 mm
11:31 23.1 °C 16.2 °C 1011.1 hPa SW 11.6 km/h 20.4 km/h 65 % 0 mm
11:36 23.1 °C 16.2 °C 1011.4 hPa South 15.6 km/h 25.9 km/h 65 % 0 mm
11:41 22.9 °C 16 °C 1011.4 hPa SSW 14.2 km/h 24.1 km/h 65 % 0 mm
11:46 23 °C 16.1 °C 1011.4 hPa SW 16.6 km/h 22.2 km/h 65 % 0 mm
11:51 23.2 °C 16.1 °C 1011.4 hPa SSW 17.1 km/h 20.4 km/h 64 % 0 mm
11:57 23.6 °C 16.1 °C 1011.1 hPa SSE 13 km/h 16.7 km/h 63 % 0 mm
12:02 24 °C 16.3 °C 1011.1 hPa South 13.5 km/h 29.6 km/h 62 % 0 mm
12:07 24.2 °C 16.2 °C 1010.7 hPa South 13.4 km/h 24.1 km/h 61 % 0 mm
12:12 24.7 °C 16.4 °C 1010.7 hPa SSE 15.4 km/h 16.7 km/h 60 % 0 mm
12:17 25.3 °C 15.9 °C 1010.7 hPa South 10.3 km/h 14.8 km/h 56 % 0 mm
12:22 25.6 °C 15.8 °C 1011.1 hPa North 15.8 km/h 19.3 km/h 55 % 0 mm
12:27 25.6 °C 15.6 °C 1011.1 hPa SSE 8.9 km/h 24.1 km/h 54 % 0 mm
12:32 25.8 °C 15.8 °C 1011.1 hPa South 12.7 km/h 18.5 km/h 54 % 0 mm
12:37 25.9 °C 15.6 °C 1011.1 hPa SSE 12.6 km/h 24.1 km/h 53 % 0 mm
12:42 26.2 °C 15.6 °C 1010.7 hPa South 11.4 km/h 18.5 km/h 52 % 0 mm
12:47 26.3 °C 15.6 °C 1010.7 hPa SE 11.6 km/h 20.4 km/h 52 % 0 mm
12:52 26.4 °C 15.4 °C 1010.7 hPa South 11.4 km/h 18.5 km/h 51 % 0 mm
12:57 26.4 °C 15.5 °C 1010.7 hPa South 9.5 km/h 13 km/h 51 % 0 mm
13:02 26.6 °C 15.3 °C 1010.7 hPa South 5.3 km/h 18.5 km/h 50 % 0 mm
13:07 26.7 °C 15.1 °C 1010.7 hPa SSW 10.9 km/h 16.7 km/h 49 % 0 mm
13:12 26.8 °C 15.2 °C 1010.7 hPa South 8 km/h 16.7 km/h 49 % 0 mm
13:17 27.1 °C 15.7 °C 1010.7 hPa SSW 12.2 km/h 19.3 km/h 50 % 0 mm
13:22 27.2 °C 15.3 °C 1010.7 hPa SSE 13.5 km/h 24.1 km/h 48 % 0 mm
13:27 27.4 °C 15.1 °C 1010.4 hPa North 20.9 km/h 27.8 km/h 47 % 0 mm
13:32 27.5 °C 15.5 °C 1010.4 hPa SE 12.4 km/h 29 km/h 48 % 0 mm
13:37 27.7 °C 15.1 °C 1010.7 hPa SSE 12.4 km/h 18.5 km/h 46 % 0 mm
13:42 27.9 °C 14.5 °C 1010.7 hPa South 13.4 km/h 18.5 km/h 44 % 0 mm
13:47 27.8 °C 14.4 °C 1010.4 hPa South 13.5 km/h 24.1 km/h 44 % 0 mm
13:51 28.3 °C 14.6 °C 1010.4 hPa SSE 12.9 km/h 25.9 km/h 43 % 0 mm
13:56 28.5 °C 14.3 °C 1010.4 hPa SSE 11.7 km/h 20.4 km/h 42 % 0 mm
14:01 28.6 °C 14.4 °C 1010.4 hPa South 12.4 km/h 20.4 km/h 42 % 0 mm
14:06 29.1 °C 14.4 °C 1010.4 hPa SSE 12.4 km/h 14.8 km/h 41 % 0 mm
14:11 29.8 °C 14 °C 1010 hPa North 15.9 km/h 29.6 km/h 38 % 0 mm
14:16 29.7 °C 13.4 °C 1010.4 hPa South 11.1 km/h 24.1 km/h 37 % 0 mm
14:21 29.4 °C 13.2 °C 1010.4 hPa South 15.6 km/h 22.2 km/h 37 % 0 mm
14:26 29.4 °C 13.2 °C 1010.4 hPa South 20.9 km/h 27.8 km/h 37 % 0 mm
14:31 29.6 °C 12.9 °C 1010.4 hPa SSE 18.8 km/h 29.6 km/h 36 % 0 mm
14:36 29.4 °C 13.2 °C 1010.4 hPa South 16.4 km/h 20.9 km/h 37 % 0 mm
14:41 28.9 °C 13.2 °C 1010.4 hPa South 17.5 km/h 25.9 km/h 38 % 0 mm
14:46 28.7 °C 13.4 °C 1010.4 hPa SSE 10.8 km/h 27.8 km/h 39 % 0 mm
14:51 28.7 °C 13.4 °C 1010 hPa SE 15.8 km/h 22.2 km/h 39 % 0 mm
14:56 28.8 °C 13.4 °C 1010 hPa South 17.9 km/h 18.5 km/h 39 % 0 mm
15:02 28.7 °C 13 °C 1010.4 hPa SSE 9.8 km/h 24.1 km/h 38 % 0 mm
15:07 28.8 °C 12.7 °C 1010 hPa SE 9.7 km/h 22.2 km/h 37 % 0 mm
15:12 29.4 °C 12.8 °C 1010 hPa SE 10.8 km/h 18.5 km/h 36 % 0 mm
15:17 30.2 °C 13.1 °C 1010 hPa SE 16.3 km/h 24.1 km/h 35 % 0 mm
15:22 30.5 °C 13.3 °C 1010 hPa South 14 km/h 24.1 km/h 35 % 0 mm
15:27 30.6 °C 13.8 °C 1009.7 hPa SE 12.9 km/h 20.4 km/h 36 % 0 mm
15:32 30.9 °C 13.3 °C 1009.7 hPa South 16.1 km/h 20.4 km/h 34 % 0 mm
15:37 31.1 °C 13.3 °C 1009.7 hPa SSE 14.2 km/h 18.5 km/h 34 % 0 mm
15:42 30.6 °C 12.9 °C 1009.7 hPa South 13 km/h 20.4 km/h 34 % 0 mm
15:47 30.6 °C 12.9 °C 1009.4 hPa SE 12.9 km/h 19.3 km/h 34 % 0 mm
15:52 30.8 °C 12.7 °C 1009.7 hPa SE 12.6 km/h 24.1 km/h 33 % 0 mm
15:57 31.1 °C 12.4 °C 1009.7 hPa SSE 14.5 km/h 18.5 km/h 32 % 0 mm
16:02 31.7 °C 12.5 °C 1009.7 hPa South 11.1 km/h 24.1 km/h 31 % 0 mm
16:07 31.9 °C 12.2 °C 1009.7 hPa SSE 13.2 km/h 24.1 km/h 30 % 0 mm
16:12 32.3 °C 12 °C 1009.4 hPa SSE 15.6 km/h 20.9 km/h 29 % 0 mm
16:17 32.4 °C 12.1 °C 1009.4 hPa South 17.7 km/h 22.5 km/h 29 % 0 mm
16:22 32.2 °C 11.3 °C 1009.7 hPa SSE 14.8 km/h 29.6 km/h 28 % 0 mm
16:27 31.9 °C 11.7 °C 1009.7 hPa South 14 km/h 24.1 km/h 29 % 0 mm
16:32 31.8 °C 11.1 °C 1009.4 hPa South 17.4 km/h 24.1 km/h 28 % 0 mm
16:37 32 °C 11.2 °C 1009.4 hPa SSE 10.3 km/h 14.8 km/h 28 % 0 mm
16:42 32.1 °C 11.3 °C 1009.4 hPa South 15 km/h 20.4 km/h 28 % 0 mm
16:47 32.1 °C 11.3 °C 1009.4 hPa SSE 6.4 km/h 16.7 km/h 28 % 0 mm
16:52 32.7 °C 11.2 °C 1009.4 hPa South 12.7 km/h 18.5 km/h 27 % 0 mm
16:57 32.7 °C 10.7 °C 1009.4 hPa SSW 16.1 km/h 25.9 km/h 26 % 0 mm
17:02 32.8 °C 10.8 °C 1009.4 hPa South 17.2 km/h 25.9 km/h 26 % 0 mm
17:07 32.9 °C 10.8 °C 1009.4 hPa South 21.2 km/h 31.5 km/h 26 % 0 mm
17:12 33.1 °C 11 °C 1009.4 hPa SSW 12.4 km/h 18.5 km/h 26 % 0 mm
17:17 32.6 °C 10.6 °C 1009.4 hPa SSE 11.4 km/h 20.4 km/h 26 % 0 mm
17:22 32.8 °C 11.3 °C 1009 hPa South 16.4 km/h 24.1 km/h 27 % 0 mm
17:27 32.9 °C 10.8 °C 1009.4 hPa South 20.6 km/h 27.8 km/h 26 % 0 mm
17:32 32.5 °C 11.1 °C 1009.4 hPa SSE 16.3 km/h 24.1 km/h 27 % 0 mm
17:37 32.2 °C 11.4 °C 1009.4 hPa South 15.3 km/h 22.2 km/h 28 % 0 mm
17:42 32.1 °C 11.8 °C 1009.4 hPa SE 12.2 km/h 20.4 km/h 29 % 0 mm
17:47 32 °C 11.7 °C 1009.4 hPa SSE 15 km/h 27.8 km/h 29 % 0 mm
17:52 31.8 °C 12.1 °C 1009.4 hPa South 13.7 km/h 24.1 km/h 30 % 0 mm
17:57 31.7 °C 12.4 °C 1009.4 hPa South 18.3 km/h 29.6 km/h 31 % 0 mm
18:02 31.6 °C 12.4 °C 1009.4 hPa South 14.8 km/h 18.5 km/h 31 % 0 mm
18:07 31.6 °C 11.9 °C 1009.4 hPa South 11.9 km/h 16.7 km/h 30 % 0 mm
18:12 31.5 °C 11.8 °C 1009.7 hPa SSW 18 km/h 27.8 km/h 30 % 0 mm
18:17 31.3 °C 12.2 °C 1009.7 hPa SSW 18.2 km/h 25.9 km/h 31 % 0 mm
18:22 31.1 °C 12.9 °C 1010 hPa SSW 13.2 km/h 24.1 km/h 33 % 0 mm
18:27 30.8 °C 13.6 °C 1009.7 hPa South 13.5 km/h 24.1 km/h 35 % 0 mm
18:32 30.6 °C 13.8 °C 1009 hPa SSE 15.1 km/h 24.1 km/h 36 % 0 mm
18:37 30.4 °C 13.7 °C 1009 hPa SSE 14.5 km/h 20.4 km/h 36 % 0 mm
18:42 29.7 °C 14.3 °C 1009.4 hPa SSW 13.2 km/h 20.4 km/h 39 % 0 mm
18:47 29.2 °C 14.2 °C 1009.7 hPa South 19 km/h 37 km/h 40 % 0 mm
18:52 28.6 °C 14.4 °C 1009.7 hPa South 18.8 km/h 25.9 km/h 42 % 0 mm
18:57 28.2 °C 14.4 °C 1009.7 hPa South 13.4 km/h 18.5 km/h 43 % 0 mm
19:02 28.1 °C 14.3 °C 1009.7 hPa SW 13.8 km/h 24.1 km/h 43 % 0 mm
19:07 28 °C 14.3 °C 1009.7 hPa South 7.2 km/h 20.4 km/h 43 % 0 mm
19:12 27.9 °C 13.8 °C 1010 hPa South 13.2 km/h 18.5 km/h 42 % 0 mm
19:17 28 °C 13.9 °C 1010.4 hPa SSW 9.2 km/h 18.5 km/h 42 % 0 mm
19:22 28 °C 13.9 °C 1010.7 hPa SSW 15.3 km/h 22.2 km/h 42 % 0 mm
19:27 27.9 °C 13.8 °C 1010.7 hPa South 11.4 km/h 18.5 km/h 42 % 0 mm
19:32 27.8 °C 13.4 °C 1010.7 hPa South 6.4 km/h 16.7 km/h 41 % 0 mm
19:37 27.8 °C 13.3 °C 1010.7 hPa South 8.4 km/h 13 km/h 41 % 0 mm
19:42 27.7 °C 13.3 °C 1010.7 hPa SSE 9.8 km/h 18.5 km/h 41 % 0 mm
19:47 27.6 °C 13.5 °C 1010.4 hPa SSE 8 km/h 16.7 km/h 42 % 0 mm
19:52 27.4 °C 13.4 °C 1010 hPa South 13.5 km/h 20.4 km/h 42 % 0 mm
19:57 27.4 °C 13.7 °C 1010 hPa South 8.5 km/h 16.7 km/h 43 % 0 mm
20:02 27.3 °C 13.6 °C 1009.7 hPa SSE 12.6 km/h 16.7 km/h 43 % 0 mm
20:07 27.1 °C 13.8 °C 1009.4 hPa SSE 12.1 km/h 19.3 km/h 44 % 0 mm
20:12 26.9 °C 13.9 °C 1009.4 hPa SSE 8.5 km/h 27.8 km/h 45 % 0 mm
20:17 26.8 °C 13.8 °C 1009.7 hPa South 12.7 km/h 24.1 km/h 45 % 0 mm
20:22 26.6 °C 13.7 °C 1009.7 hPa South 8.2 km/h 11.3 km/h 45 % 0 mm
20:27 26.4 °C 13.9 °C 1009.7 hPa South 10.9 km/h 22.2 km/h 46 % 0 mm
20:32 26.2 °C 13.7 °C 1009.7 hPa South 10.8 km/h 16.1 km/h 46 % 0 mm
20:37 26.1 °C 13.6 °C 1009.7 hPa South 11.1 km/h 16.7 km/h 46 % 0 mm
20:42 25.9 °C 13.7 °C 1009.7 hPa South 9.7 km/h 20.4 km/h 47 % 0 mm
20:47 25.7 °C 13.6 °C 1009.7 hPa South 10.1 km/h 16.1 km/h 47 % 0 mm
20:52 25.6 °C 13.4 °C 1009.7 hPa South 10.3 km/h 18.5 km/h 47 % 0 mm
20:57 25.4 °C 13.6 °C 1010 hPa South 9.3 km/h 12.9 km/h 48 % 0 mm
21:02 25.3 °C 13.6 °C 1010 hPa South 4 km/h 9.7 km/h 48 % 0 mm
21:07 25.2 °C 13.4 °C 1010 hPa South 4.2 km/h 8 km/h 48 % 0 mm
21:12 25.1 °C 13.7 °C 1010 hPa South 6.1 km/h 9.3 km/h 49 % 0 mm
21:17 25 °C 13.6 °C 1010 hPa South 6.1 km/h 8 km/h 49 % 0 mm
21:22 24.9 °C 13.4 °C 1010 hPa South 5.5 km/h 9.3 km/h 49 % 0 mm
21:27 24.8 °C 13.3 °C 1010.4 hPa South 7.7 km/h 11.3 km/h 49 % 0 mm
21:32 24.7 °C 13.3 °C 1010 hPa South 5.6 km/h 13 km/h 49 % 0 mm
21:37 24.7 °C 13.2 °C 1010 hPa South 8.7 km/h 14.8 km/h 49 % 0 mm
21:42 24.7 °C 12.9 °C 1010 hPa South 5 km/h 9.3 km/h 48 % 0 mm
21:47 24.7 °C 12.3 °C 1010 hPa South 4.3 km/h 11.1 km/h 46 % 0 mm
21:52 24.7 °C 11.9 °C 1010 hPa South 4.8 km/h 7.4 km/h 45 % 0 mm
21:57 24.7 °C 11.9 °C 1010 hPa South 6 km/h 7.4 km/h 45 % 0 mm
22:02 24.6 °C 11.6 °C 1010 hPa South 6.8 km/h 9.3 km/h 44 % 0 mm
22:07 24.6 °C 11.6 °C 1010 hPa South 2.6 km/h 5.6 km/h 44 % 0 mm
22:12 24.6 °C 11.2 °C 1010 hPa South 5.6 km/h 9.7 km/h 43 % 0 mm
22:17 24.5 °C 11.1 °C 1010 hPa South 8 km/h 11.1 km/h 43 % 0 mm
22:22 24.4 °C 11 °C 1010 hPa South 10.6 km/h 16.7 km/h 43 % 0 mm
22:27 24.4 °C 10.7 °C 1010 hPa South 4.7 km/h 9.3 km/h 42 % 0 mm
22:32 24.4 °C 10.7 °C 1010 hPa South 4.7 km/h 9.3 km/h 42 % 0 mm
22:37 24.4 °C 11.1 °C 1010 hPa South 7.2 km/h 9.7 km/h 43 % 0 mm
22:42 24.4 °C 11 °C 1010 hPa North 7.7 km/h 13 km/h 43 % 0 mm
22:47 24.3 °C 11.2 °C 1010.4 hPa SSW 6.6 km/h 9.3 km/h 44 % 0 mm
22:52 24.2 °C 11.5 °C 1010 hPa SSW 5.8 km/h 7.4 km/h 45 % 0 mm
22:57 24.1 °C 11.4 °C 1010 hPa SSW 5.6 km/h 11.1 km/h 45 % 0 mm
23:02 23.9 °C 11.3 °C 1010 hPa SSW 6 km/h 8 km/h 45 % 0 mm
23:07 23.9 °C 11.3 °C 1010 hPa SSW 6.4 km/h 7.4 km/h 45 % 0 mm
23:12 24 °C 11.3 °C 1010 hPa SSW 5.8 km/h 9.3 km/h 45 % 0 mm
23:17 24 °C 11.3 °C 1009.7 hPa SSW 4.8 km/h 5.6 km/h 45 % 0 mm
23:22 24 °C 11 °C 1009.7 hPa SSW 3.2 km/h 5.6 km/h 44 % 0 mm
23:27 23.9 °C 11.3 °C 1009.4 hPa North 4.2 km/h 6.4 km/h 45 % 0 mm
23:32 23.9 °C 11.2 °C 1009 hPa SSW 2.6 km/h 5.6 km/h 45 % 0 mm
23:37 23.7 °C 11.1 °C 1009.4 hPa SSW 4.5 km/h 5.6 km/h 45 % 0 mm
23:42 23.7 °C 11.1 °C 1009.7 hPa North 5.1 km/h 7.4 km/h 45 % 0 mm
23:47 23.8 °C 11.1 °C 1009.7 hPa SSW 4.5 km/h 9.3 km/h 45 % 0 mm
23:52 23.9 °C 10.9 °C 1009.4 hPa SSW 3.2 km/h 5.6 km/h 44 % 0 mm
23:57 24.1 °C 11.1 °C 1009.4 hPa SSW 2.1 km/h 5.6 km/h 44 % 0 mm
Ararat Weather
Compliments of Weather Underground - 2 mb
Click here to send mail.


ABOUT

Live weather data from Ararat, Victoria, Australia, 3377
Data uploaded from Cumulus every 5 minutes to Weather Underground.
This site then downloads the raw data for formatting and display.
Metric and imperial data can be displayed. Graphs and historical data available.
Includes Sun and Moon times and rain image live from BOM.

Check out Ararat Weather on Facebook, Twitter and Google +

Help support ongoing costs by checking out the ads





Follow @AraratWeather